Meiringen Airport LSMM

Flugplatz Daten

Name: Meiringen Airport

Ident: LSMM

Lat: 46,74330139

Long: 8,109999657

Platzhöhe: 1895 ft

IataCode:

City:

Metar

2021/08/02 09:20
LSMM 020920Z AUTO 25005KT 210V290 7000NDV SCT099 17/12 Q1018 RMK

Taf

2021/08/01 17:00
TAF LSMM 011625Z 0117/0223 27003KT 9999 BKN064 OVC073
TEMPO 0117/0122 SHRA SCT040TCU PROB30
TEMPO 0117/0118 27015G25KT TSRA SCT040CB PROB40 0201/0206 3000 MIFG PROB30 0202/0205 0800 PRFG VV003
TEMPO 0209/0223 SHRA PROB30
TEMPO 0212/0220 SHRA SCT050TCU
Gewünschte Webcam nicht vorhanden? Dann fügen Sie eine hinzu. Sie wird dann so schnell wie möglich freigeschaltet
Url: Title: